sensor_id;sensor_type;location;lat;lon;timestamp;temperature;humidity
27940;DHT22;15275;51.716;14.324;2022-08-19T00:01:30;27.00;70.60
27940;DHT22;15275;51.716;14.324;2022-08-19T00:03:58;27.00;70.80
27940;DHT22;15275;51.716;14.324;2022-08-19T00:06:27;26.90;70.80
27940;DHT22;15275;51.716;14.324;2022-08-19T00:08:54;26.90;70.90
27940;DHT22;15275;51.716;14.324;2022-08-19T00:11:21;26.80;71.10
27940;DHT22;15275;51.716;14.324;2022-08-19T00:13:47;26.80;71.20
27940;DHT22;15275;51.716;14.324;2022-08-19T00:16:17;26.70;71.20
27940;DHT22;15275;51.716;14.324;2022-08-19T00:18:47;26.70;71.50
27940;DHT22;15275;51.716;14.324;2022-08-19T00:21:14;26.70;71.60
27940;DHT22;15275;51.716;14.324;2022-08-19T00:23:41;26.60;71.70
27940;DHT22;15275;51.716;14.324;2022-08-19T00:26:09;26.60;71.90
27940;DHT22;15275;51.716;14.324;2022-08-19T00:28:36;26.60;72.00
27940;DHT22;15275;51.716;14.324;2022-08-19T00:31:07;26.60;72.20
27940;DHT22;15275;51.716;14.324;2022-08-19T00:33:34;26.50;72.20
27940;DHT22;15275;51.716;14.324;2022-08-19T00:36:05;26.50;72.40
27940;DHT22;15275;51.716;14.324;2022-08-19T00:38:34;26.50;72.60
27940;DHT22;15275;51.716;14.324;2022-08-19T00:41:01;26.40;72.70
27940;DHT22;15275;51.716;14.324;2022-08-19T00:43:28;26.40;72.80
27940;DHT22;15275;51.716;14.324;2022-08-19T00:45:54;26.40;72.90
27940;DHT22;15275;51.716;14.324;2022-08-19T00:48:21;26.40;73.00
27940;DHT22;15275;51.716;14.324;2022-08-19T00:50:49;26.30;73.10
27940;DHT22;15275;51.716;14.324;2022-08-19T00:53:20;26.30;73.20
27940;DHT22;15275;51.716;14.324;2022-08-19T00:55:50;26.30;73.20
27940;DHT22;15275;51.716;14.324;2022-08-19T00:58:19;26.30;73.30
27940;DHT22;15275;51.716;14.324;2022-08-19T01:00:47;26.30;73.40
27940;DHT22;15275;51.716;14.324;2022-08-19T01:03:17;26.20;73.40
27940;DHT22;15275;51.716;14.324;2022-08-19T01:05:46;26.20;73.50
27940;DHT22;15275;51.716;14.324;2022-08-19T01:08:15;26.20;73.50
27940;DHT22;15275;51.716;14.324;2022-08-19T01:10:44;26.20;73.50
27940;DHT22;15275;51.716;14.324;2022-08-19T01:13:19;26.20;73.60
27940;DHT22;15275;51.716;14.324;2022-08-19T01:15:52;26.20;73.50
27940;DHT22;15275;51.716;14.324;2022-08-19T01:18:21;26.20;73.50
27940;DHT22;15275;51.716;14.324;2022-08-19T01:20:48;26.20;73.80
27940;DHT22;15275;51.716;14.324;2022-08-19T01:23:14;26.20;73.80
27940;DHT22;15275;51.716;14.324;2022-08-19T01:25:45;26.20;73.80
27940;DHT22;15275;51.716;14.324;2022-08-19T01:28:30;26.20;73.80
27940;DHT22;15275;51.716;14.324;2022-08-19T01:30:56;26.20;73.50
27940;DHT22;15275;51.716;14.324;2022-08-19T01:33:22;26.20;73.80
27940;DHT22;15275;51.716;14.324;2022-08-19T01:35:48;26.20;73.80
27940;DHT22;15275;51.716;14.324;2022-08-19T01:38:26;26.20;73.80
27940;DHT22;15275;51.716;14.324;2022-08-19T01:40:53;26.20;73.40
27940;DHT22;15275;51.716;14.324;2022-08-19T01:43:19;26.10;73.80
27940;DHT22;15275;51.716;14.324;2022-08-19T01:45:46;26.10;73.80
27940;DHT22;15275;51.716;14.324;2022-08-19T01:48:13;26.10;73.70
27940;DHT22;15275;51.716;14.324;2022-08-19T01:50:39;26.10;73.80
27940;DHT22;15275;51.716;14.324;2022-08-19T01:53:09;26.10;73.80
27940;DHT22;15275;51.716;14.324;2022-08-19T01:55:40;26.10;73.70
27940;DHT22;15275;51.716;14.324;2022-08-19T01:58:12;26.10;73.70
27940;DHT22;15275;51.716;14.324;2022-08-19T02:00:41;26.10;73.70
27940;DHT22;15275;51.716;14.324;2022-08-19T02:03:07;26.00;73.80
27940;DHT22;15275;51.716;14.324;2022-08-19T02:05:34;26.00;73.90
27940;DHT22;15275;51.716;14.324;2022-08-19T02:08:00;26.00;73.90
27940;DHT22;15275;51.716;14.324;2022-08-19T02:10:26;26.00;74.00
27940;DHT22;15275;51.716;14.324;2022-08-19T02:12:52;26.00;74.00
27940;DHT22;15275;51.716;14.324;2022-08-19T02:15:19;26.00;74.20
27940;DHT22;15275;51.716;14.324;2022-08-19T02:17:45;25.90;74.30
27940;DHT22;15275;51.716;14.324;2022-08-19T02:20:13;25.90;74.30
27940;DHT22;15275;51.716;14.324;2022-08-19T02:22:40;25.80;74.40
27940;DHT22;15275;51.716;14.324;2022-08-19T02:25:08;25.80;74.40
27940;DHT22;15275;51.716;14.324;2022-08-19T02:27:36;25.70;74.60
27940;DHT22;15275;51.716;14.324;2022-08-19T02:30:04;25.60;74.80
27940;DHT22;15275;51.716;14.324;2022-08-19T02:32:31;25.50;74.90
27940;DHT22;15275;51.716;14.324;2022-08-19T02:34:58;25.40;75.10
27940;DHT22;15275;51.716;14.324;2022-08-19T02:37:24;25.30;75.30
27940;DHT22;15275;51.716;14.324;2022-08-19T02:40:09;25.20;75.50
27940;DHT22;15275;51.716;14.324;2022-08-19T02:42:35;25.20;75.70
27940;DHT22;15275;51.716;14.324;2022-08-19T02:45:01;25.10;75.90
27940;DHT22;15275;51.716;14.324;2022-08-19T02:47:28;25.00;76.10
27940;DHT22;15275;51.716;14.324;2022-08-19T02:49:53;24.90;76.40
27940;DHT22;15275;51.716;14.324;2022-08-19T02:52:19;24.80;76.60
27940;DHT22;15275;51.716;14.324;2022-08-19T02:54:45;24.80;76.80
27940;DHT22;15275;51.716;14.324;2022-08-19T02:57:11;24.70;77.00
27940;DHT22;15275;51.716;14.324;2022-08-19T02:59:37;24.70;77.10
27940;DHT22;15275;51.716;14.324;2022-08-19T03:02:03;24.60;77.30
27940;DHT22;15275;51.716;14.324;2022-08-19T03:04:29;24.60;77.50
27940;DHT22;15275;51.716;14.324;2022-08-19T03:06:55;24.50;77.70
27940;DHT22;15275;51.716;14.324;2022-08-19T03:09:21;24.50;77.80
27940;DHT22;15275;51.716;14.324;2022-08-19T03:11:47;24.50;78.00
27940;DHT22;15275;51.716;14.324;2022-08-19T03:14:13;24.40;78.10
27940;DHT22;15275;51.716;14.324;2022-08-19T03:16:46;24.40;78.20
27940;DHT22;15275;51.716;14.324;2022-08-19T03:19:15;24.40;78.40
27940;DHT22;15275;51.716;14.324;2022-08-19T03:21:43;24.40;78.40
27940;DHT22;15275;51.716;14.324;2022-08-19T03:24:13;24.40;78.50
27940;DHT22;15275;51.716;14.324;2022-08-19T03:26:41;24.40;78.60
27940;DHT22;15275;51.716;14.324;2022-08-19T03:29:12;24.40;78.70
27940;DHT22;15275;51.716;14.324;2022-08-19T03:31:39;24.30;78.70
27940;DHT22;15275;51.716;14.324;2022-08-19T03:34:06;24.30;78.70
27940;DHT22;15275;51.716;14.324;2022-08-19T03:36:33;24.30;78.80
27940;DHT22;15275;51.716;14.324;2022-08-19T03:39:00;24.30;78.80
27940;DHT22;15275;51.716;14.324;2022-08-19T03:41:32;24.30;78.90
27940;DHT22;15275;51.716;14.324;2022-08-19T03:44:03;24.30;79.00
27940;DHT22;15275;51.716;14.324;2022-08-19T03:46:32;24.30;79.00
27940;DHT22;15275;51.716;14.324;2022-08-19T03:49:01;24.20;79.20
27940;DHT22;15275;51.716;14.324;2022-08-19T03:51:38;24.20;79.30
27940;DHT22;15275;51.716;14.324;2022-08-19T03:54:07;24.20;79.40
27940;DHT22;15275;51.716;14.324;2022-08-19T03:56:35;24.10;79.40
27940;DHT22;15275;51.716;14.324;2022-08-19T03:59:04;24.10;79.50
27940;DHT22;15275;51.716;14.324;2022-08-19T04:01:31;24.10;79.60
27940;DHT22;15275;51.716;14.324;2022-08-19T04:03:58;24.10;79.60
27940;DHT22;15275;51.716;14.324;2022-08-19T04:06:30;24.00;79.70
27940;DHT22;15275;51.716;14.324;2022-08-19T04:08:59;24.00;79.90
27940;DHT22;15275;51.716;14.324;2022-08-19T04:11:33;24.00;79.90
27940;DHT22;15275;51.716;14.324;2022-08-19T04:14:01;24.00;80.00
27940;DHT22;15275;51.716;14.324;2022-08-19T04:16:29;24.00;80.00
27940;DHT22;15275;51.716;14.324;2022-08-19T04:18:56;24.00;80.00
27940;DHT22;15275;51.716;14.324;2022-08-19T04:21:27;24.00;80.10
27940;DHT22;15275;51.716;14.324;2022-08-19T04:23:54;24.00;80.20
27940;DHT22;15275;51.716;14.324;2022-08-19T04:26:24;24.00;80.20
27940;DHT22;15275;51.716;14.324;2022-08-19T04:28:54;24.00;80.30
27940;DHT22;15275;51.716;14.324;2022-08-19T04:31:25;24.00;80.30
27940;DHT22;15275;51.716;14.324;2022-08-19T04:33:55;24.00;80.40
27940;DHT22;15275;51.716;14.324;2022-08-19T04:36:28;24.00;80.40
27940;DHT22;15275;51.716;14.324;2022-08-19T04:39:00;24.00;80.40
27940;DHT22;15275;51.716;14.324;2022-08-19T04:41:30;24.00;80.40
27940;DHT22;15275;51.716;14.324;2022-08-19T04:44:14;24.10;80.50
27940;DHT22;15275;51.716;14.324;2022-08-19T04:46:47;24.10;80.50
27940;DHT22;15275;51.716;14.324;2022-08-19T04:49:15;24.10;80.50
27940;DHT22;15275;51.716;14.324;2022-08-19T04:51:44;24.10;80.50
27940;DHT22;15275;51.716;14.324;2022-08-19T04:54:13;24.10;80.50
27940;DHT22;15275;51.716;14.324;2022-08-19T04:56:40;24.20;80.40
27940;DHT22;15275;51.716;14.324;2022-08-19T04:59:07;24.20;80.40
27940;DHT22;15275;51.716;14.324;2022-08-19T05:01:34;24.20;80.40
27940;DHT22;15275;51.716;14.324;2022-08-19T05:04:04;24.20;80.40
27940;DHT22;15275;51.716;14.324;2022-08-19T05:06:32;24.20;80.50
27940;DHT22;15275;51.716;14.324;2022-08-19T05:09:08;24.20;80.50
27940;DHT22;15275;51.716;14.324;2022-08-19T05:11:36;24.20;80.50
27940;DHT22;15275;51.716;14.324;2022-08-19T05:14:09;24.20;80.50
27940;DHT22;15275;51.716;14.324;2022-08-19T05:16:38;24.30;80.40
27940;DHT22;15275;51.716;14.324;2022-08-19T05:19:04;24.30;80.40
27940;DHT22;15275;51.716;14.324;2022-08-19T05:21:49;24.30;80.40
27940;DHT22;15275;51.716;14.324;2022-08-19T05:24:33;24.30;80.50
27940;DHT22;15275;51.716;14.324;2022-08-19T05:27:00;24.30;80.40
27940;DHT22;15275;51.716;14.324;2022-08-19T05:29:28;24.30;80.50
27940;DHT22;15275;51.716;14.324;2022-08-19T05:31:55;24.30;80.40
27940;DHT22;15275;51.716;14.324;2022-08-19T05:34:23;24.30;80.40
27940;DHT22;15275;51.716;14.324;2022-08-19T05:36:53;24.40;80.40
27940;DHT22;15275;51.716;14.324;2022-08-19T05:39:24;24.40;80.40
27940;DHT22;15275;51.716;14.324;2022-08-19T05:41:55;24.40;80.40
27940;DHT22;15275;51.716;14.324;2022-08-19T05:44:28;24.40;80.50
27940;DHT22;15275;51.716;14.324;2022-08-19T05:46:57;24.40;80.40
27940;DHT22;15275;51.716;14.324;2022-08-19T05:49:25;24.40;80.40
27940;DHT22;15275;51.716;14.324;2022-08-19T05:51:52;24.40;80.50
27940;DHT22;15275;51.716;14.324;2022-08-19T05:54:20;24.40;80.60
27940;DHT22;15275;51.716;14.324;2022-08-19T05:56:50;24.40;80.60
27940;DHT22;15275;51.716;14.324;2022-08-19T05:59:18;24.50;80.70
27940;DHT22;15275;51.716;14.324;2022-08-19T06:01:47;24.50;80.80
27940;DHT22;15275;51.716;14.324;2022-08-19T06:04:18;24.60;80.80
27940;DHT22;15275;51.716;14.324;2022-08-19T06:06:49;24.60;80.70
27940;DHT22;15275;51.716;14.324;2022-08-19T06:09:18;24.70;80.60
27940;DHT22;15275;51.716;14.324;2022-08-19T06:11:47;24.70;80.40
27940;DHT22;15275;51.716;14.324;2022-08-19T06:14:19;24.80;80.50
27940;DHT22;15275;51.716;14.324;2022-08-19T06:16:46;24.80;80.50
27940;DHT22;15275;51.716;14.324;2022-08-19T06:19:15;24.90;80.30
27940;DHT22;15275;51.716;14.324;2022-08-19T06:21:44;24.90;80.30
27940;DHT22;15275;51.716;14.324;2022-08-19T06:24:15;25.00;80.20
27940;DHT22;15275;51.716;14.324;2022-08-19T06:26:46;25.10;80.10
27940;DHT22;15275;51.716;14.324;2022-08-19T06:29:16;25.10;80.00
27940;DHT22;15275;51.716;14.324;2022-08-19T06:31:46;25.10;80.00
27940;DHT22;15275;51.716;14.324;2022-08-19T06:34:15;25.20;79.90
27940;DHT22;15275;51.716;14.324;2022-08-19T06:36:44;25.20;79.90
27940;DHT22;15275;51.716;14.324;2022-08-19T06:39:16;25.30;79.70
27940;DHT22;15275;51.716;14.324;2022-08-19T06:41:46;25.40;79.60
27940;DHT22;15275;51.716;14.324;2022-08-19T06:44:14;25.40;79.40
27940;DHT22;15275;51.716;14.324;2022-08-19T06:46:41;25.50;79.40
27940;DHT22;15275;51.716;14.324;2022-08-19T06:49:07;25.50;79.40
27940;DHT22;15275;51.716;14.324;2022-08-19T06:51:44;25.60;79.40
27940;DHT22;15275;51.716;14.324;2022-08-19T06:54:12;25.70;79.30
27940;DHT22;15275;51.716;14.324;2022-08-19T06:56:39;25.70;79.20
27940;DHT22;15275;51.716;14.324;2022-08-19T06:59:10;25.80;79.10
27940;DHT22;15275;51.716;14.324;2022-08-19T07:01:43;25.90;78.70
27940;DHT22;15275;51.716;14.324;2022-08-19T07:04:13;26.00;78.60
27940;DHT22;15275;51.716;14.324;2022-08-19T07:06:44;26.00;78.50
27940;DHT22;15275;51.716;14.324;2022-08-19T07:09:12;26.10;78.30
27940;DHT22;15275;51.716;14.324;2022-08-19T07:11:46;26.10;78.10
27940;DHT22;15275;51.716;14.324;2022-08-19T07:14:13;26.10;77.90
27940;DHT22;15275;51.716;14.324;2022-08-19T07:16:44;26.20;77.70
27940;DHT22;15275;51.716;14.324;2022-08-19T07:19:11;26.20;77.60
27940;DHT22;15275;51.716;14.324;2022-08-19T07:21:38;26.20;77.50
27940;DHT22;15275;51.716;14.324;2022-08-19T07:24:04;26.20;77.40
27940;DHT22;15275;51.716;14.324;2022-08-19T07:26:33;26.20;77.20
27940;DHT22;15275;51.716;14.324;2022-08-19T07:29:05;26.20;77.10
27940;DHT22;15275;51.716;14.324;2022-08-19T07:31:31;26.30;77.20
27940;DHT22;15275;51.716;14.324;2022-08-19T07:34:02;26.30;77.10
27940;DHT22;15275;51.716;14.324;2022-08-19T07:36:34;26.30;77.20
27940;DHT22;15275;51.716;14.324;2022-08-19T07:39:06;26.30;77.20
27940;DHT22;15275;51.716;14.324;2022-08-19T07:41:35;26.30;76.90
27940;DHT22;15275;51.716;14.324;2022-08-19T07:44:04;26.30;77.10
27940;DHT22;15275;51.716;14.324;2022-08-19T07:46:31;26.30;77.00
27940;DHT22;15275;51.716;14.324;2022-08-19T07:48:59;26.30;76.80
27940;DHT22;15275;51.716;14.324;2022-08-19T07:51:26;26.30;76.70
27940;DHT22;15275;51.716;14.324;2022-08-19T07:53:53;26.30;76.70
27940;DHT22;15275;51.716;14.324;2022-08-19T07:56:21;26.30;76.80
27940;DHT22;15275;51.716;14.324;2022-08-19T07:58:49;26.30;76.90
27940;DHT22;15275;51.716;14.324;2022-08-19T08:01:22;26.30;76.70
27940;DHT22;15275;51.716;14.324;2022-08-19T08:03:52;26.30;76.40
27940;DHT22;15275;51.716;14.324;2022-08-19T08:06:37;26.30;76.40
27940;DHT22;15275;51.716;14.324;2022-08-19T08:09:28;26.20;76.60
27940;DHT22;15275;51.716;14.324;2022-08-19T08:12:06;26.20;76.70
27940;DHT22;15275;51.716;14.324;2022-08-19T08:14:49;26.20;76.40
27940;DHT22;15275;51.716;14.324;2022-08-19T08:17:18;26.20;76.50
27940;DHT22;15275;51.716;14.324;2022-08-19T08:19:46;26.20;76.90
27940;DHT22;15275;51.716;14.324;2022-08-19T08:22:17;26.10;77.00
27940;DHT22;15275;51.716;14.324;2022-08-19T08:25:05;26.10;76.90
27940;DHT22;15275;51.716;14.324;2022-08-19T08:27:42;26.10;76.90
27940;DHT22;15275;51.716;14.324;2022-08-19T08:30:15;26.10;76.80
27940;DHT22;15275;51.716;14.324;2022-08-19T08:32:45;26.10;76.80
27940;DHT22;15275;51.716;14.324;2022-08-19T08:35:14;26.00;76.80
27940;DHT22;15275;51.716;14.324;2022-08-19T08:37:43;26.00;76.80
27940;DHT22;15275;51.716;14.324;2022-08-19T08:43:18;25.90;76.80
27940;DHT22;15275;51.716;14.324;2022-08-19T08:45:59;25.90;77.10
27940;DHT22;15275;51.716;14.324;2022-08-19T08:51:18;25.90;77.00
27940;DHT22;15275;51.716;14.324;2022-08-19T08:53:49;25.90;77.30
27940;DHT22;15275;51.716;14.324;2022-08-19T08:56:16;25.90;77.60
27940;DHT22;15275;51.716;14.324;2022-08-19T08:58:58;25.90;77.50
27940;DHT22;15275;51.716;14.324;2022-08-19T09:01:26;26.00;76.90
27940;DHT22;15275;51.716;14.324;2022-08-19T09:03:53;26.00;77.50
27940;DHT22;15275;51.716;14.324;2022-08-19T09:06:42;26.00;77.40
27940;DHT22;15275;51.716;14.324;2022-08-19T09:09:26;26.10;76.90
27940;DHT22;15275;51.716;14.324;2022-08-19T09:14:40;26.20;77.40
27940;DHT22;15275;51.716;14.324;2022-08-19T09:17:18;26.30;76.80
27940;DHT22;15275;51.716;14.324;2022-08-19T09:20:21;26.40;77.20
27940;DHT22;15275;51.716;14.324;2022-08-19T09:22:48;26.50;76.20
27940;DHT22;15275;51.716;14.324;2022-08-19T09:25:18;26.50;76.90
27940;DHT22;15275;51.716;14.324;2022-08-19T09:27:48;26.60;76.50
27940;DHT22;15275;51.716;14.324;2022-08-19T09:30:27;26.70;76.60
27940;DHT22;15275;51.716;14.324;2022-08-19T09:32:55;26.70;75.80
27940;DHT22;15275;51.716;14.324;2022-08-19T09:35:24;26.80;76.40
27940;DHT22;15275;51.716;14.324;2022-08-19T09:37:52;26.80;76.20
27940;DHT22;15275;51.716;14.324;2022-08-19T09:40:19;26.80;76.10
27940;DHT22;15275;51.716;14.324;2022-08-19T09:42:45;26.90;75.70
27940;DHT22;15275;51.716;14.324;2022-08-19T09:45:15;26.90;75.70
27940;DHT22;15275;51.716;14.324;2022-08-19T09:47:45;26.90;75.40
27940;DHT22;15275;51.716;14.324;2022-08-19T09:50:12;26.90;75.50
27940;DHT22;15275;51.716;14.324;2022-08-19T09:52:38;27.00;75.40
27940;DHT22;15275;51.716;14.324;2022-08-19T09:55:05;27.00;75.30
27940;DHT22;15275;51.716;14.324;2022-08-19T09:57:33;27.00;75.20
27940;DHT22;15275;51.716;14.324;2022-08-19T09:59:59;27.00;75.20
27940;DHT22;15275;51.716;14.324;2022-08-19T10:02:25;27.00;75.00
27940;DHT22;15275;51.716;14.324;2022-08-19T10:04:52;27.00;75.00
27940;DHT22;15275;51.716;14.324;2022-08-19T10:07:37;27.10;74.90
27940;DHT22;15275;51.716;14.324;2022-08-19T10:10:05;27.10;75.00
27940;DHT22;15275;51.716;14.324;2022-08-19T10:12:32;27.10;74.80
27940;DHT22;15275;51.716;14.324;2022-08-19T10:15:00;27.10;74.80
27940;DHT22;15275;51.716;14.324;2022-08-19T10:17:26;27.20;74.60
27940;DHT22;15275;51.716;14.324;2022-08-19T10:19:52;27.10;74.70
27940;DHT22;15275;51.716;14.324;2022-08-19T10:22:18;27.10;74.70
27940;DHT22;15275;51.716;14.324;2022-08-19T10:24:46;27.20;74.60
27940;DHT22;15275;51.716;14.324;2022-08-19T10:27:12;27.20;74.50
27940;DHT22;15275;51.716;14.324;2022-08-19T10:29:41;27.20;74.40
27940;DHT22;15275;51.716;14.324;2022-08-19T10:32:08;27.20;74.60
27940;DHT22;15275;51.716;14.324;2022-08-19T10:34:36;27.30;74.40
27940;DHT22;15275;51.716;14.324;2022-08-19T10:37:04;27.30;74.40
27940;DHT22;15275;51.716;14.324;2022-08-19T10:39:35;27.30;74.50
27940;DHT22;15275;51.716;14.324;2022-08-19T10:42:08;27.40;74.20
27940;DHT22;15275;51.716;14.324;2022-08-19T10:44:36;27.40;73.70
27940;DHT22;15275;51.716;14.324;2022-08-19T10:47:03;27.40;74.30
27940;DHT22;15275;51.716;14.324;2022-08-19T10:49:29;27.50;74.10
27940;DHT22;15275;51.716;14.324;2022-08-19T11:47:32;27.60;73.70
27940;DHT22;15275;51.716;14.324;2022-08-19T11:49:58;27.60;74.60
27940;DHT22;15275;51.716;14.324;2022-08-19T11:52:24;27.60;74.50
27940;DHT22;15275;51.716;14.324;2022-08-19T11:54:50;27.60;74.30
27940;DHT22;15275;51.716;14.324;2022-08-19T11:57:16;27.70;74.10
27940;DHT22;15275;51.716;14.324;2022-08-19T11:59:48;27.70;73.90
27940;DHT22;15275;51.716;14.324;2022-08-19T12:02:15;27.70;73.50
27940;DHT22;15275;51.716;14.324;2022-08-19T12:17:31;27.90;72.50
27940;DHT22;15275;51.716;14.324;2022-08-19T12:19:57;27.90;73.70
27940;DHT22;15275;51.716;14.324;2022-08-19T12:22:23;27.90;73.40
27940;DHT22;15275;51.716;14.324;2022-08-19T12:24:48;27.90;73.20
27940;DHT22;15275;51.716;14.324;2022-08-19T12:27:16;27.90;73.10
27940;DHT22;15275;51.716;14.324;2022-08-19T12:29:42;27.90;73.00
27940;DHT22;15275;51.716;14.324;2022-08-19T12:32:08;27.90;72.90
27940;DHT22;15275;51.716;14.324;2022-08-19T12:34:35;27.90;72.90
27940;DHT22;15275;51.716;14.324;2022-08-19T12:37:04;27.90;72.90
27940;DHT22;15275;51.716;14.324;2022-08-19T12:39:41;27.90;73.00
27940;DHT22;15275;51.716;14.324;2022-08-19T12:42:09;27.80;72.50
27940;DHT22;15275;51.716;14.324;2022-08-19T12:44:37;27.70;73.10
27940;DHT22;15275;51.716;14.324;2022-08-19T12:47:05;27.70;73.10
27940;DHT22;15275;51.716;14.324;2022-08-19T12:49:32;27.60;73.30
27940;DHT22;15275;51.716;14.324;2022-08-19T12:52:07;27.60;73.40
27940;DHT22;15275;51.716;14.324;2022-08-19T12:54:34;27.50;73.50
27940;DHT22;15275;51.716;14.324;2022-08-19T12:57:05;27.50;73.90
27940;DHT22;15275;51.716;14.324;2022-08-19T12:59:36;27.40;73.80
27940;DHT22;15275;51.716;14.324;2022-08-19T13:02:04;27.40;74.40
27940;DHT22;15275;51.716;14.324;2022-08-19T13:04:32;27.40;74.60
27940;DHT22;15275;51.716;14.324;2022-08-19T13:07:01;27.30;74.90
27940;DHT22;15275;51.716;14.324;2022-08-19T13:09:27;27.30;75.00
27940;DHT22;15275;51.716;14.324;2022-08-19T13:11:53;27.30;75.10
27940;DHT22;15275;51.716;14.324;2022-08-19T13:14:19;27.30;75.00
27940;DHT22;15275;51.716;14.324;2022-08-19T13:16:45;27.30;75.00
27940;DHT22;15275;51.716;14.324;2022-08-19T13:19:11;27.30;75.10
27940;DHT22;15275;51.716;14.324;2022-08-19T13:21:38;27.30;75.30
27940;DHT22;15275;51.716;14.324;2022-08-19T13:24:04;27.30;75.40
27940;DHT22;15275;51.716;14.324;2022-08-19T13:26:30;27.40;75.40
27940;DHT22;15275;51.716;14.324;2022-08-19T13:28:56;27.40;75.20
27940;DHT22;15275;51.716;14.324;2022-08-19T13:31:41;27.40;75.20
27940;DHT22;15275;51.716;14.324;2022-08-19T13:34:32;27.40;75.20
27940;DHT22;15275;51.716;14.324;2022-08-19T13:37:00;27.40;75.30
27940;DHT22;15275;51.716;14.324;2022-08-19T13:39:29;27.50;75.30
27940;DHT22;15275;51.716;14.324;2022-08-19T13:41:56;27.50;75.20
27940;DHT22;15275;51.716;14.324;2022-08-19T13:44:21;27.60;74.90
27940;DHT22;15275;51.716;14.324;2022-08-19T13:46:48;27.60;74.80
27940;DHT22;15275;51.716;14.324;2022-08-19T13:49:18;27.60;74.60
27940;DHT22;15275;51.716;14.324;2022-08-19T13:51:45;27.60;74.20
27940;DHT22;15275;51.716;14.324;2022-08-19T13:54:12;27.60;74.10
27940;DHT22;15275;51.716;14.324;2022-08-19T13:56:42;27.60;74.10
27940;DHT22;15275;51.716;14.324;2022-08-19T13:59:10;27.50;73.90
27940;DHT22;15275;51.716;14.324;2022-08-19T14:01:37;27.50;74.20
27940;DHT22;15275;51.716;14.324;2022-08-19T14:04:04;27.50;74.10
27940;DHT22;15275;51.716;14.324;2022-08-19T14:06:31;27.50;74.20
27940;DHT22;15275;51.716;14.324;2022-08-19T14:08:58;27.40;74.10
27940;DHT22;15275;51.716;14.324;2022-08-19T14:11:24;27.40;74.20
27940;DHT22;15275;51.716;14.324;2022-08-19T14:13:50;27.40;74.10
27940;DHT22;15275;51.716;14.324;2022-08-19T14:16:16;27.40;74.10
27940;DHT22;15275;51.716;14.324;2022-08-19T14:18:42;27.30;74.30
27940;DHT22;15275;51.716;14.324;2022-08-19T14:21:15;27.30;74.30
27940;DHT22;15275;51.716;14.324;2022-08-19T14:23:43;27.30;74.00
27940;DHT22;15275;51.716;14.324;2022-08-19T14:26:14;27.30;74.30
27940;DHT22;15275;51.716;14.324;2022-08-19T14:28:42;27.20;74.10
27940;DHT22;15275;51.716;14.324;2022-08-19T14:31:13;27.10;74.40
27940;DHT22;15275;51.716;14.324;2022-08-19T14:33:44;27.10;74.50
27940;DHT22;15275;51.716;14.324;2022-08-19T14:36:10;27.00;74.70
27940;DHT22;15275;51.716;14.324;2022-08-19T14:38:36;27.00;74.70
27940;DHT22;15275;51.716;14.324;2022-08-19T14:41:16;27.00;74.80
27940;DHT22;15275;51.716;14.324;2022-08-19T14:43:46;27.00;74.70
27940;DHT22;15275;51.716;14.324;2022-08-19T14:46:16;26.90;75.20
27940;DHT22;15275;51.716;14.324;2022-08-19T14:48:42;26.90;75.20
27940;DHT22;15275;51.716;14.324;2022-08-19T14:51:09;26.90;75.50
27940;DHT22;15275;51.716;14.324;2022-08-19T14:53:35;26.90;75.50
27940;DHT22;15275;51.716;14.324;2022-08-19T14:56:01;26.90;75.50
27940;DHT22;15275;51.716;14.324;2022-08-19T14:58:27;26.90;75.40
27940;DHT22;15275;51.716;14.324;2022-08-19T15:00:53;26.80;75.50
27940;DHT22;15275;51.716;14.324;2022-08-19T15:03:19;26.80;75.40
27940;DHT22;15275;51.716;14.324;2022-08-19T15:05:45;26.80;75.40
27940;DHT22;15275;51.716;14.324;2022-08-19T15:08:11;26.70;75.50
27940;DHT22;15275;51.716;14.324;2022-08-19T15:10:40;26.70;75.60
27940;DHT22;15275;51.716;14.324;2022-08-19T15:13:06;26.70;75.60
27940;DHT22;15275;51.716;14.324;2022-08-19T15:15:32;26.60;75.70
27940;DHT22;15275;51.716;14.324;2022-08-19T15:17:58;26.60;75.80
27940;DHT22;15275;51.716;14.324;2022-08-19T15:20:28;26.60;75.80
27940;DHT22;15275;51.716;14.324;2022-08-19T15:22:54;26.60;75.70
27940;DHT22;15275;51.716;14.324;2022-08-19T15:25:21;26.60;75.90
27940;DHT22;15275;51.716;14.324;2022-08-19T15:27:47;26.50;76.00
27940;DHT22;15275;51.716;14.324;2022-08-19T15:30:20;26.50;76.00
27940;DHT22;15275;51.716;14.324;2022-08-19T15:32:48;26.50;75.80
27940;DHT22;15275;51.716;14.324;2022-08-19T15:35:14;26.50;76.00
27940;DHT22;15275;51.716;14.324;2022-08-19T15:37:40;26.50;76.00
27940;DHT22;15275;51.716;14.324;2022-08-19T15:40:06;26.50;76.00
27940;DHT22;15275;51.716;14.324;2022-08-19T15:42:37;26.40;76.10
27940;DHT22;15275;51.716;14.324;2022-08-19T15:45:07;26.40;76.00
27940;DHT22;15275;51.716;14.324;2022-08-19T15:47:35;26.40;76.10
27940;DHT22;15275;51.716;14.324;2022-08-19T15:50:10;26.30;76.20
27940;DHT22;15275;51.716;14.324;2022-08-19T15:52:51;26.30;76.20
27940;DHT22;15275;51.716;14.324;2022-08-19T15:55:30;26.30;76.20
27940;DHT22;15275;51.716;14.324;2022-08-19T15:57:59;26.20;76.20
27940;DHT22;15275;51.716;14.324;2022-08-19T16:00:45;26.20;76.50
27940;DHT22;15275;51.716;14.324;2022-08-19T16:03:29;26.20;76.50
27940;DHT22;15275;51.716;14.324;2022-08-19T16:06:13;26.20;76.50
27940;DHT22;15275;51.716;14.324;2022-08-19T16:08:57;26.20;76.60
27940;DHT22;15275;51.716;14.324;2022-08-19T16:11:29;26.10;76.80
27940;DHT22;15275;51.716;14.324;2022-08-19T16:13:57;26.20;76.50
27940;DHT22;15275;51.716;14.324;2022-08-19T16:16:32;26.20;76.70
27940;DHT22;15275;51.716;14.324;2022-08-19T16:19:00;26.20;76.30
27940;DHT22;15275;51.716;14.324;2022-08-19T16:21:28;26.20;76.50
27940;DHT22;15275;51.716;14.324;2022-08-19T16:24:00;26.20;76.50
27940;DHT22;15275;51.716;14.324;2022-08-19T16:26:28;26.20;76.40
27940;DHT22;15275;51.716;14.324;2022-08-19T16:28:56;26.20;76.40
27940;DHT22;15275;51.716;14.324;2022-08-19T16:31:23;26.20;76.40
27940;DHT22;15275;51.716;14.324;2022-08-19T16:33:50;26.20;76.40
27940;DHT22;15275;51.716;14.324;2022-08-19T16:36:16;26.20;76.40
27940;DHT22;15275;51.716;14.324;2022-08-19T16:38:43;26.20;76.30
27940;DHT22;15275;51.716;14.324;2022-08-19T16:41:13;26.20;76.30
27940;DHT22;15275;51.716;14.324;2022-08-19T16:43:39;26.20;76.40
27940;DHT22;15275;51.716;14.324;2022-08-19T16:46:06;26.20;76.30